Terminal Aerodrome Forecast
Issued by NWS Caribou, ME

Home | Current Version | Previous Version | Text Only | Print | Product List | Glossary On
Versions: 1 2 3 4 5 6 7 8 9 10 11 12 13 14 15 16 17 18 19 20 21 22 23 24 25 26 27 28 29 30 31
000
FTUS41 KCAR 022300
TAFBGR
TAF
KBGR 022321Z 0300/0324 18009KT 6SM BR VCSH OVC008
     FM030300 18004KT 2SM -SHRA BR OVC005
     FM030500 00000KT 1SM SHRA BR VCTS BKN002CB OVC004
     FM031100 00000KT 5SM BR VCSH BKN006 OVC015
     FM031300 31006KT P6SM SCT010 BKN020
     FM031400 31008KT P6SM BKN040
     FM031600 30010KT P6SM SCT060=

USA.gov is the U.S. government's official web portal to all federal, state and local government web resources and services.